עמוד ראשי
METAR-TAF:

METAR-TAF

שדות תעופה :

Hassan

לעיון, מרוקו

קו רוחב: 27-10N, קו אורך: 013-12-59W, גובה: 6מטר

תצפית מזג אוויר נוכחית

הדו"ח נערך לפני 56דקות, בשעה 00:00 UTC
רוח 16קשר מכיוון צפון-מזרח
טמפרטורת 21 צלסיוס
לחות 69%
לחץ 1019 hPa
ראות: 8000מטר
עננים בינוניים בגובה 2000רגל

METAR: GMML 130000Z 04016KT 8000 BKN020 21/15 Q1019 NOSIG

זמן: 01:56 (00:56 UTC)

תחזית

הדו"ח נערך לפני 1 שעות ו 56דקות, בשעה 23:00 UTC
תחזית בתוקף מ 13 ב 00 UTC עד 14 ב 06 UTC
רוח 16קשר מכיוון צפון/צפון-מזרח
ראות: 8000מטר
עננים פזורים בגובה 2500רגל
יעשה מ
13 ב 00 UTC עד 13 ב 02 UTC
עננים בינוניים בגובה 1000רגל
יעשה מ
13 ב 08 UTC עד 13 ב 10 UTC
מעט עננים בגובה 2000רגל

TAF: GMML 122300Z 1300/1406 02016KT 8000 SCT025 BECMG 1300/1302 BKN010 BECMG 1308/1310 FEW020

תצפיות ותחזיות מזג אוויר לגבי יותר מ- 4,000 שדות תעופה ברחבי העולם. דוחות METAR ו- TAF.

התחנות הזמינות מסומנות בנקודות צהובות ואדומות על גבי המפה.

העבר את העכבר לנקודה הצבעונית על מנת לראות את שם התחנה.

לאחר מכן, לחץ כדי לראות את תוכן ואת תחזיות מזג האוויר.

כדי לשנות את המפה: לחץ על הכפתורים הירוקים עם הפלוס השחור כדי להתקרב; על הכפתור הירוק עם המקף כדי להתרחק; או בחיצים הירוקים למפות סמוכות.


METAR-TAF: